PWSweather.com
Personal Weather Stations
Station Observations
MDHALE1
Southwest Baltimore Co., Halethorpe, MD 21227

Southwest Baltimore Co.Halethorpe, MD 21227

Lat: 39.23643, Lon: -76.696959

Elevation: 86

Station Type: Davis Vantage Pro2+

http://www.halethorpeweather.com

Latest ConditionsUpdated 6:30:05 PM EST Saturday, Dec 3, 2016
Currently Today's Max Today's Min Today's Average
Temperature 42.7°F5.9°C 50.4°F10.2°C 40.6°F4.8°C 44.7°F7.1°C
Dew Point 30.5°F-0.8°C 32.9°F0.5°C 28.5°F-1.9°C 30.5°F-0.8°C
Winds 3.5 mph W5.6 kmh W 13.8 mph W22.2 kmh W - 5.6 mph 9.0 kmh
Wind Gusts 3.5 mph5.6 kmh 26.5 mph42.6 kmh - -
Humidity 62% 65% 48% 58%
Pressure 30.22 in1023.4 mb 30.23 in1023.7 mb 30.09 in1019.0 mb -
Hour Temp Dew Point Humidity Winds Wind Gusts Pressure Precip Precip Rate Daily Precip Total
06:30 PM 42.7°F5.9°C 30.5°F-0.8°C 62% 3.5 mph W5.6 kmh W 3.5 mph5.6 kmh 30.22 in1023.4 mb - 0.00 in0.0 mm 0.00 in0.0 mm
06:15 PM 43.3°F6.3°C 30.7°F-0.7°C 61% 2.3 mph W3.7 kmh W 5.8 mph9.3 kmh 30.22 in1023.4 mb - 0.00 in0.0 mm 0.00 in0.0 mm
06:00 PM 43.8°F6.6°C 30.8°F-0.7°C 60% 3.5 mph WSW5.6 kmh WSW 8.1 mph13.0 kmh 30.23 in1023.7 mb - 0.00 in0.0 mm 0.00 in0.0 mm
05:45 PM 44.2°F6.8°C 30.8°F-0.7°C 59% 5.8 mph W9.3 kmh W 6.9 mph11.1 kmh 30.22 in1023.4 mb - 0.00 in0.0 mm 0.00 in0.0 mm
05:30 PM 44.4°F6.9°C 31.4°F-0.3°C 60% 2.3 mph WSW3.7 kmh WSW 10.4 mph16.7 kmh 30.22 in1023.4 mb - 0.00 in0.0 mm 0.00 in0.0 mm
05:15 PM 44.7°F7.1°C 30.8°F-0.7°C 58% 1.2 mph NW1.9 kmh NW 2.3 mph3.7 kmh 30.22 in1023.4 mb - 0.00 in0.0 mm 0.00 in0.0 mm
05:00 PM 45.3°F7.4°C 30.9°F-0.6°C 57% 3.5 mph W5.6 kmh W 4.6 mph7.4 kmh 30.21 in1023.0 mb - 0.00 in0.0 mm 0.00 in0.0 mm
04:45 PM 45.7°F7.6°C 30.8°F-0.7°C 56% 5.8 mph W9.3 kmh W 8.1 mph13.0 kmh 30.21 in1023.0 mb - 0.00 in0.0 mm 0.00 in0.0 mm
04:30 PM 45.9°F7.7°C 30.6°F-0.8°C 55% 2.3 mph WNW3.7 kmh WNW 6.9 mph11.1 kmh 30.22 in1023.4 mb - 0.00 in0.0 mm 0.00 in0.0 mm
04:15 PM 46.2°F7.9°C 30.9°F-0.6°C 55% 1.2 mph NW1.9 kmh NW 3.5 mph5.6 kmh 30.23 in1023.7 mb - 0.00 in0.0 mm 0.00 in0.0 mm
04:00 PM 46.6°F8.1°C 31.3°F-0.4°C 55% 4.6 mph W7.4 kmh W 5.8 mph9.3 kmh 30.23 in1023.7 mb - 0.00 in0.0 mm 0.00 in0.0 mm
03:45 PM 47.2°F8.4°C 30.9°F-0.6°C 53% 6.9 mph NW11.1 kmh NW 12.7 mph20.4 kmh 30.22 in1023.4 mb - 0.00 in0.0 mm 0.00 in0.0 mm
03:30 PM 47.2°F8.4°C 31.4°F-0.3°C 54% 4.6 mph W7.4 kmh W 10.4 mph16.7 kmh 30.21 in1023.0 mb - 0.00 in0.0 mm 0.00 in0.0 mm
03:15 PM 47.7°F8.7°C 31.4°F-0.3°C 53% 5.8 mph WNW9.3 kmh WNW 8.1 mph13.0 kmh 30.21 in1023.0 mb - 0.00 in0.0 mm 0.00 in0.0 mm
03:00 PM 48.3°F9.1°C 31.0°F-0.6°C 51% 4.6 mph WNW7.4 kmh WNW 12.7 mph20.4 kmh 30.19 in1022.4 mb - 0.00 in0.0 mm 0.00 in0.0 mm
02:45 PM 48.8°F9.3°C 31.5°F-0.3°C 51% 6.9 mph WSW11.1 kmh WSW 5.8 mph9.3 kmh 30.18 in1022.0 mb - 0.00 in0.0 mm 0.00 in0.0 mm
02:30 PM 49.5°F9.7°C 31.6°F-0.2°C 50% 5.8 mph WNW9.3 kmh WNW 12.7 mph20.4 kmh 30.17 in1021.7 mb - 0.00 in0.0 mm 0.00 in0.0 mm
02:15 PM 49.7°F9.8°C 31.8°F-0.1°C 50% 3.5 mph NNW5.6 kmh NNW 13.8 mph22.2 kmh 30.16 in1021.3 mb - 0.00 in0.0 mm 0.00 in0.0 mm
02:00 PM 49.5°F9.7°C 31.6°F-0.2°C 50% 9.2 mph NW14.8 kmh NW 10.4 mph16.7 kmh 30.16 in1021.3 mb - 0.00 in0.0 mm 0.00 in0.0 mm
01:45 PM 49.3°F9.6°C 31.4°F-0.3°C 50% 8.1 mph WNW13.0 kmh WNW 10.4 mph16.7 kmh 30.16 in1021.3 mb - 0.00 in0.0 mm 0.00 in0.0 mm
01:30 PM 49.8°F9.9°C 31.4°F-0.3°C 49% 6.9 mph NW11.1 kmh NW 11.5 mph18.5 kmh 30.16 in1021.3 mb - 0.00 in0.0 mm 0.00 in0.0 mm
01:15 PM 49.2°F9.6°C 30.9°F-0.6°C 49% 11.5 mph WNW18.5 kmh WNW 19.6 mph31.5 kmh 30.16 in1021.3 mb - 0.00 in0.0 mm 0.00 in0.0 mm
01:00 PM 49.2°F9.6°C 30.9°F-0.6°C 49% 10.4 mph NW16.7 kmh NW 12.7 mph20.4 kmh 30.17 in1021.7 mb - 0.00 in0.0 mm 0.00 in0.0 mm
12:45 PM 50.4°F10.2°C 31.5°F-0.3°C 48% 9.2 mph WNW14.8 kmh WNW 23.0 mph37.0 kmh 30.18 in1022.0 mb - 0.00 in0.0 mm 0.00 in0.0 mm
12:30 PM 49.8°F9.9°C 31.9°F-0.1°C 50% 13.8 mph W22.2 kmh W 26.5 mph42.6 kmh 30.18 in1022.0 mb - 0.00 in0.0 mm 0.00 in0.0 mm
12:15 PM 49.6°F9.8°C 31.7°F-0.2°C 50% 10.4 mph WNW16.7 kmh WNW 17.3 mph27.8 kmh 30.18 in1022.0 mb - 0.00 in0.0 mm 0.00 in0.0 mm
12:00 PM 49.1°F9.5°C 31.7°F-0.2°C 51% 11.5 mph W18.5 kmh W 16.1 mph25.9 kmh 30.18 in1022.0 mb - 0.00 in0.0 mm 0.00 in0.0 mm
11:45 AM 50.4°F10.2°C 32.9°F0.5°C 51% 5.8 mph NW9.3 kmh NW 11.5 mph18.5 kmh 30.19 in1022.4 mb - 0.00 in0.0 mm 0.00 in0.0 mm
11:30 AM 48.8°F9.3°C 31.5°F-0.3°C 51% 6.9 mph N11.1 kmh N 8.1 mph13.0 kmh 30.19 in1022.4 mb - 0.00 in0.0 mm 0.00 in0.0 mm
11:15 AM 48.4°F9.1°C 31.6°F-0.2°C 52% 8.1 mph WNW13.0 kmh WNW 11.5 mph18.5 kmh 30.19 in1022.4 mb - 0.00 in0.0 mm 0.00 in0.0 mm
11:00 AM 47.9°F8.8°C 31.1°F-0.5°C 52% 10.4 mph W16.7 kmh W 15.0 mph24.1 kmh 30.20 in1022.7 mb - 0.00 in0.0 mm 0.00 in0.0 mm
10:45 AM 47.9°F8.8°C 31.6°F-0.2°C 53% 8.1 mph NW13.0 kmh NW 13.8 mph22.2 kmh 30.21 in1023.0 mb - 0.00 in0.0 mm 0.00 in0.0 mm
10:30 AM 47.5°F8.6°C 31.2°F-0.4°C 53% 9.2 mph W14.8 kmh W 15.0 mph24.1 kmh 30.22 in1023.4 mb - 0.00 in0.0 mm 0.00 in0.0 mm
10:15 AM 47.3°F8.5°C 31.9°F-0.1°C 55% 6.9 mph W11.1 kmh W 12.7 mph20.4 kmh 30.21 in1023.0 mb - 0.00 in0.0 mm 0.00 in0.0 mm
10:00 AM 45.9°F7.7°C 31.1°F-0.5°C 56% 10.4 mph W16.7 kmh W 13.8 mph22.2 kmh 30.21 in1023.0 mb - 0.00 in0.0 mm 0.00 in0.0 mm
09:45 AM 45.4°F7.4°C 31.0°F-0.6°C 57% 6.9 mph WSW11.1 kmh WSW 10.4 mph16.7 kmh 30.20 in1022.7 mb - 0.00 in0.0 mm 0.00 in0.0 mm
09:30 AM 44.8°F7.1°C 30.9°F-0.6°C 58% 6.9 mph WNW11.1 kmh WNW 10.4 mph16.7 kmh 30.20 in1022.7 mb - 0.00 in0.0 mm 0.00 in0.0 mm
09:15 AM 44.2°F6.8°C 30.8°F-0.7°C 59% 10.4 mph WSW16.7 kmh WSW 15.0 mph24.1 kmh 30.20 in1022.7 mb - 0.00 in0.0 mm 0.00 in0.0 mm
09:00 AM 43.7°F6.5°C 30.3°F-0.9°C 59% 5.8 mph WSW9.3 kmh WSW 5.8 mph9.3 kmh 30.20 in1022.7 mb - 0.00 in0.0 mm 0.00 in0.0 mm
08:45 AM 43.0°F6.1°C 30.0°F-1.1°C 60% 6.9 mph WSW11.1 kmh WSW 8.1 mph13.0 kmh 30.20 in1022.7 mb - 0.00 in0.0 mm 0.00 in0.0 mm
08:30 AM 42.2°F5.7°C 29.7°F-1.3°C 61% 8.1 mph W13.0 kmh W 12.7 mph20.4 kmh 30.19 in1022.4 mb - 0.00 in0.0 mm 0.00 in0.0 mm
08:15 AM 41.6°F5.3°C 29.5°F-1.4°C 62% 5.8 mph W9.3 kmh W 12.7 mph20.4 kmh 30.18 in1022.0 mb - 0.00 in0.0 mm 0.00 in0.0 mm
08:04 AM 41.1°F5.1°C 29.5°F-1.4°C 63% 6.9 mph WSW11.1 kmh WSW 8.1 mph13.0 kmh 30.18 in1022.0 mb - 0.00 in0.0 mm 0.00 in0.0 mm
08:00 AM 41.0°F5.0°C 29.4°F-1.4°C 63% 4.6 mph W7.4 kmh W 8.1 mph13.0 kmh 30.18 in1022.0 mb - 0.00 in0.0 mm 0.00 in0.0 mm
07:45 AM 40.7°F4.8°C 29.4°F-1.4°C 64% 3.5 mph SW5.6 kmh SW 6.9 mph11.1 kmh 30.17 in1021.7 mb - 0.00 in0.0 mm 0.00 in0.0 mm
07:30 AM 40.6°F4.8°C 29.4°F-1.4°C 64% 1.2 mph WSW1.9 kmh WSW 3.5 mph5.6 kmh 30.16 in1021.3 mb - 0.00 in0.0 mm 0.00 in0.0 mm
07:15 AM 40.7°F4.8°C 29.1°F-1.6°C 63% 3.5 mph NW5.6 kmh NW 11.5 mph18.5 kmh 30.16 in1021.3 mb - 0.00 in0.0 mm 0.00 in0.0 mm
07:00 AM 41.0°F5.0°C 29.3°F-1.5°C 63% 3.5 mph W5.6 kmh W 6.9 mph11.1 kmh 30.16 in1021.3 mb - 0.00 in0.0 mm 0.00 in0.0 mm
06:45 AM 41.1°F5.1°C 29.5°F-1.4°C 63% 5.8 mph WSW9.3 kmh WSW 15.0 mph24.1 kmh 30.14 in1020.7 mb - 0.00 in0.0 mm 0.00 in0.0 mm
06:30 AM 41.1°F5.1°C 29.5°F-1.4°C 63% 4.6 mph W7.4 kmh W 5.8 mph9.3 kmh 30.14 in1020.7 mb - 0.00 in0.0 mm 0.00 in0.0 mm
06:15 AM 41.3°F5.2°C 29.7°F-1.3°C 63% 3.5 mph WNW5.6 kmh WNW 8.1 mph13.0 kmh 30.14 in1020.7 mb - 0.00 in0.0 mm 0.00 in0.0 mm
06:00 AM 41.3°F5.2°C 30.1°F-1.1°C 64% 6.9 mph W11.1 kmh W 10.4 mph16.7 kmh 30.13 in1020.3 mb - 0.00 in0.0 mm 0.00 in0.0 mm
05:45 AM 41.3°F5.2°C 30.0°F-1.1°C 64% 5.8 mph W9.3 kmh W 5.8 mph9.3 kmh 30.13 in1020.3 mb - 0.00 in0.0 mm 0.00 in0.0 mm
05:30 AM 41.6°F5.3°C 30.3°F-0.9°C 64% 5.8 mph W9.3 kmh W 6.9 mph11.1 kmh 30.12 in1020.0 mb - 0.00 in0.0 mm 0.00 in0.0 mm
05:15 AM 41.3°F5.2°C 30.4°F-0.9°C 65% 3.5 mph WNW5.6 kmh WNW 8.1 mph13.0 kmh 30.12 in1020.0 mb - 0.00 in0.0 mm 0.00 in0.0 mm
05:00 AM 41.8°F5.4°C 30.1°F-1.1°C 63% 5.8 mph SW9.3 kmh SW 10.4 mph16.7 kmh 30.11 in1019.6 mb - 0.00 in0.0 mm 0.00 in0.0 mm
04:45 AM 42.1°F5.6°C 30.0°F-1.1°C 62% 4.6 mph WSW7.4 kmh WSW 10.4 mph16.7 kmh 30.11 in1019.6 mb - 0.00 in0.0 mm 0.00 in0.0 mm
04:30 AM 42.3°F5.7°C 29.8°F-1.2°C 61% 2.3 mph WSW3.7 kmh WSW 3.5 mph5.6 kmh 30.11 in1019.6 mb - 0.00 in0.0 mm 0.00 in0.0 mm
04:15 AM 42.5°F5.8°C 30.4°F-0.9°C 62% 6.9 mph WNW11.1 kmh WNW 11.5 mph18.5 kmh 30.10 in1019.3 mb - 0.00 in0.0 mm 0.00 in0.0 mm
04:00 AM 42.6°F5.9°C 30.1°F-1.1°C 61% 4.6 mph WSW7.4 kmh WSW 11.5 mph18.5 kmh 30.09 in1019.0 mb - 0.00 in0.0 mm 0.00 in0.0 mm
03:45 AM 42.5°F5.8°C 30.4°F-0.9°C 62% 2.3 mph W3.7 kmh W 5.8 mph9.3 kmh 30.09 in1019.0 mb - 0.00 in0.0 mm 0.00 in0.0 mm
03:30 AM 42.7°F5.9°C 30.2°F-1.0°C 61% 4.6 mph W7.4 kmh W 11.5 mph18.5 kmh 30.09 in1019.0 mb - 0.00 in0.0 mm 0.00 in0.0 mm
03:15 AM 42.5°F5.8°C 30.4°F-0.9°C 62% 1.2 mph WSW1.9 kmh WSW 4.6 mph7.4 kmh 30.10 in1019.3 mb - 0.00 in0.0 mm 0.00 in0.0 mm
03:00 AM 42.9°F6.1°C 30.4°F-0.9°C 61% 3.5 mph W5.6 kmh W 8.1 mph13.0 kmh 30.11 in1019.6 mb - 0.00 in0.0 mm 0.00 in0.0 mm
02:45 AM 43.2°F6.2°C 30.6°F-0.8°C 61% 4.6 mph WSW7.4 kmh WSW 5.8 mph9.3 kmh 30.11 in1019.6 mb - 0.00 in0.0 mm 0.00 in0.0 mm
02:30 AM 42.9°F6.1°C 30.4°F-0.9°C 61% 3.5 mph WNW5.6 kmh WNW 5.8 mph9.3 kmh 30.11 in1019.6 mb - 0.00 in0.0 mm 0.00 in0.0 mm
02:15 AM 43.2°F6.2°C 30.3°F-0.9°C 60% 1.2 mph W1.9 kmh W 3.5 mph5.6 kmh 30.11 in1019.6 mb - 0.00 in0.0 mm 0.00 in0.0 mm
02:00 AM 43.2°F6.2°C 30.3°F-0.9°C 60% 5.8 mph WSW9.3 kmh WSW 11.5 mph18.5 kmh 30.10 in1019.3 mb - 0.00 in0.0 mm 0.00 in0.0 mm
01:45 AM 43.3°F6.3°C 30.3°F-0.9°C 60% 3.5 mph NW5.6 kmh NW 6.9 mph11.1 kmh 30.10 in1019.3 mb - 0.00 in0.0 mm 0.00 in0.0 mm
01:30 AM 43.3°F6.3°C 29.9°F-1.2°C 59% 4.6 mph SW7.4 kmh SW 6.9 mph11.1 kmh 30.11 in1019.6 mb - 0.00 in0.0 mm 0.00 in0.0 mm
01:15 AM 43.2°F6.2°C 29.8°F-1.2°C 59% 2.3 mph W3.7 kmh W 5.8 mph9.3 kmh 30.11 in1019.6 mb - 0.00 in0.0 mm 0.00 in0.0 mm
01:00 AM 43.3°F6.3°C 29.5°F-1.4°C 58% 8.1 mph WSW13.0 kmh WSW 8.1 mph13.0 kmh 30.10 in1019.3 mb - 0.00 in0.0 mm 0.00 in0.0 mm
12:45 AM 43.2°F6.2°C 29.4°F-1.4°C 58% 4.6 mph WSW7.4 kmh WSW 8.1 mph13.0 kmh 30.11 in1019.6 mb - 0.00 in0.0 mm 0.00 in0.0 mm
12:30 AM 43.1°F6.2°C 28.9°F-1.7°C 57% 4.6 mph W7.4 kmh W 8.1 mph13.0 kmh 30.10 in1019.3 mb - 0.00 in0.0 mm 0.00 in0.0 mm
12:15 AM 43.1°F6.2°C 28.9°F-1.7°C 57% 2.3 mph WNW3.7 kmh WNW 4.6 mph7.4 kmh 30.10 in1019.3 mb - 0.00 in0.0 mm 0.00 in0.0 mm
12:01 AM 43.1°F6.2°C 28.5°F-1.9°C 56% 6.9 mph WSW11.1 kmh WSW 11.5 mph18.5 kmh 30.10 in1019.3 mb - 0.00 in0.0 mm 0.00 in0.0 mm